sensor_id;sensor_type;location;lat;lon;timestamp;P1;durP1;ratioP1;P2;durP2;ratioP2
30850;SDS011;17567;48.382;9.102;2023-02-01T00:02:45;4.13;;;3.57;;
30850;SDS011;17567;48.382;9.102;2023-02-01T00:07:47;4.27;;;3.13;;
30850;SDS011;17567;48.382;9.102;2023-02-01T00:12:49;3.33;;;3.03;;
30850;SDS011;17567;48.382;9.102;2023-02-01T00:17:53;3.77;;;3.03;;
30850;SDS011;17567;48.382;9.102;2023-02-01T00:22:54;2.93;;;2.67;;
30850;SDS011;17567;48.382;9.102;2023-02-01T00:27:55;4.87;;;2.83;;
30850;SDS011;17567;48.382;9.102;2023-02-01T00:32:57;3.60;;;2.83;;
30850;SDS011;17567;48.382;9.102;2023-02-01T00:37:57;2.90;;;2.70;;
30850;SDS011;17567;48.382;9.102;2023-02-01T00:42:59;3.17;;;2.67;;
30850;SDS011;17567;48.382;9.102;2023-02-01T00:48:00;2.57;;;2.30;;
30850;SDS011;17567;48.382;9.102;2023-02-01T00:53:00;2.77;;;2.40;;
30850;SDS011;17567;48.382;9.102;2023-02-01T00:58:01;2.40;;;2.20;;
30850;SDS011;17567;48.382;9.102;2023-02-01T01:03:01;2.30;;;2.10;;
30850;SDS011;17567;48.382;9.102;2023-02-01T01:08:02;3.00;;;2.57;;
30850;SDS011;17567;48.382;9.102;2023-02-01T01:13:03;4.13;;;2.20;;
30850;SDS011;17567;48.382;9.102;2023-02-01T01:18:04;2.10;;;1.97;;
30850;SDS011;17567;48.382;9.102;2023-02-01T01:23:05;2.33;;;2.17;;
30850;SDS011;17567;48.382;9.102;2023-02-01T01:28:06;2.33;;;2.00;;
30850;SDS011;17567;48.382;9.102;2023-02-01T01:33:07;2.40;;;2.07;;
30850;SDS011;17567;48.382;9.102;2023-02-01T01:38:08;2.30;;;2.03;;
30850;SDS011;17567;48.382;9.102;2023-02-01T01:43:14;2.30;;;2.10;;
30850;SDS011;17567;48.382;9.102;2023-02-01T01:48:21;2.47;;;2.10;;
30850;SDS011;17567;48.382;9.102;2023-02-01T01:53:32;2.50;;;2.30;;
30850;SDS011;17567;48.382;9.102;2023-02-01T01:58:37;2.60;;;2.17;;
30850;SDS011;17567;48.382;9.102;2023-02-01T02:03:44;2.50;;;2.30;;
30850;SDS011;17567;48.382;9.102;2023-02-01T02:08:47;4.10;;;2.30;;
30850;SDS011;17567;48.382;9.102;2023-02-01T02:13:50;2.20;;;2.10;;
30850;SDS011;17567;48.382;9.102;2023-02-01T02:24:28;2.47;;;2.27;;
30850;SDS011;17567;48.382;9.102;2023-02-01T02:40:41;2.03;;;1.87;;
30850;SDS011;17567;48.382;9.102;2023-02-01T02:46:04;1.77;;;1.67;;
30850;SDS011;17567;48.382;9.102;2023-02-01T02:57:09;3.53;;;1.93;;
30850;SDS011;17567;48.382;9.102;2023-02-01T03:02:36;2.30;;;2.10;;
30850;SDS011;17567;48.382;9.102;2023-02-01T03:13:11;2.30;;;2.10;;
30850;SDS011;17567;48.382;9.102;2023-02-01T03:18:23;2.33;;;1.90;;
30850;SDS011;17567;48.382;9.102;2023-02-01T03:23:30;2.30;;;1.90;;
30850;SDS011;17567;48.382;9.102;2023-02-01T03:28:34;3.67;;;3.10;;
30850;SDS011;17567;48.382;9.102;2023-02-01T03:33:36;4.23;;;2.50;;
30850;SDS011;17567;48.382;9.102;2023-02-01T03:38:38;2.40;;;2.20;;
30850;SDS011;17567;48.382;9.102;2023-02-01T03:49:20;2.33;;;2.13;;
30850;SDS011;17567;48.382;9.102;2023-02-01T03:54:36;2.77;;;2.07;;
30850;SDS011;17567;48.382;9.102;2023-02-01T03:59:41;2.40;;;2.20;;
30850;SDS011;17567;48.382;9.102;2023-02-01T04:04:44;2.40;;;2.20;;
30850;SDS011;17567;48.382;9.102;2023-02-01T04:09:45;3.77;;;3.17;;
30850;SDS011;17567;48.382;9.102;2023-02-01T04:14:46;3.27;;;2.97;;
30850;SDS011;17567;48.382;9.102;2023-02-01T04:19:46;3.10;;;2.80;;
30850;SDS011;17567;48.382;9.102;2023-02-01T04:24:47;2.80;;;2.60;;
30850;SDS011;17567;48.382;9.102;2023-02-01T04:29:47;3.00;;;2.80;;
30850;SDS011;17567;48.382;9.102;2023-02-01T04:34:49;2.93;;;2.30;;
30850;SDS011;17567;48.382;9.102;2023-02-01T04:39:50;3.50;;;2.60;;
30850;SDS011;17567;48.382;9.102;2023-02-01T04:44:50;2.17;;;2.07;;
30850;SDS011;17567;48.382;9.102;2023-02-01T04:49:51;2.87;;;2.30;;
30850;SDS011;17567;48.382;9.102;2023-02-01T04:54:51;2.37;;;2.17;;
30850;SDS011;17567;48.382;9.102;2023-02-01T04:59:54;1.97;;;1.80;;
30850;SDS011;17567;48.382;9.102;2023-02-01T05:04:54;2.43;;;2.23;;
30850;SDS011;17567;48.382;9.102;2023-02-01T05:09:55;2.47;;;2.27;;
30850;SDS011;17567;48.382;9.102;2023-02-01T05:14:56;2.23;;;2.07;;
30850;SDS011;17567;48.382;9.102;2023-02-01T05:19:56;2.33;;;2.13;;
30850;SDS011;17567;48.382;9.102;2023-02-01T05:24:57;1.97;;;1.73;;
30850;SDS011;17567;48.382;9.102;2023-02-01T05:29:58;3.10;;;2.00;;
30850;SDS011;17567;48.382;9.102;2023-02-01T05:34:58;1.90;;;1.80;;
30850;SDS011;17567;48.382;9.102;2023-02-01T05:39:59;3.43;;;1.90;;
30850;SDS011;17567;48.382;9.102;2023-02-01T05:44:59;2.00;;;1.90;;
30850;SDS011;17567;48.382;9.102;2023-02-01T05:50:00;2.57;;;1.70;;
30850;SDS011;17567;48.382;9.102;2023-02-01T05:55:00;2.10;;;1.63;;
30850;SDS011;17567;48.382;9.102;2023-02-01T06:00:01;1.60;;;1.50;;
30850;SDS011;17567;48.382;9.102;2023-02-01T06:05:03;1.60;;;1.50;;
30850;SDS011;17567;48.382;9.102;2023-02-01T06:10:03;1.73;;;1.50;;
30850;SDS011;17567;48.382;9.102;2023-02-01T06:15:04;1.60;;;1.50;;
30850;SDS011;17567;48.382;9.102;2023-02-01T06:20:06;2.20;;;1.60;;
30850;SDS011;17567;48.382;9.102;2023-02-01T06:25:07;1.43;;;1.33;;
30850;SDS011;17567;48.382;9.102;2023-02-01T06:30:10;2.23;;;1.40;;
30850;SDS011;17567;48.382;9.102;2023-02-01T06:35:13;2.17;;;1.97;;
30850;SDS011;17567;48.382;9.102;2023-02-01T06:40:16;2.00;;;1.80;;
30850;SDS011;17567;48.382;9.102;2023-02-01T06:45:16;2.33;;;1.90;;
30850;SDS011;17567;48.382;9.102;2023-02-01T06:50:17;2.97;;;1.70;;
30850;SDS011;17567;48.382;9.102;2023-02-01T06:55:17;2.10;;;1.77;;
30850;SDS011;17567;48.382;9.102;2023-02-01T07:00:18;1.93;;;1.83;;
30850;SDS011;17567;48.382;9.102;2023-02-01T07:05:19;2.37;;;2.17;;
30850;SDS011;17567;48.382;9.102;2023-02-01T07:10:20;2.20;;;2.00;;
30850;SDS011;17567;48.382;9.102;2023-02-01T07:21:14;3.00;;;2.33;;
30850;SDS011;17567;48.382;9.102;2023-02-01T07:26:15;2.17;;;1.97;;
30850;SDS011;17567;48.382;9.102;2023-02-01T07:31:17;2.70;;;2.30;;
30850;SDS011;17567;48.382;9.102;2023-02-01T07:36:20;2.10;;;2.00;;
30850;SDS011;17567;48.382;9.102;2023-02-01T07:41:21;4.30;;;2.27;;
30850;SDS011;17567;48.382;9.102;2023-02-01T07:46:25;2.20;;;1.97;;
30850;SDS011;17567;48.382;9.102;2023-02-01T07:51:25;2.80;;;2.47;;
30850;SDS011;17567;48.382;9.102;2023-02-01T07:56:26;2.67;;;2.47;;
30850;SDS011;17567;48.382;9.102;2023-02-01T08:01:27;2.40;;;2.20;;
30850;SDS011;17567;48.382;9.102;2023-02-01T08:06:29;4.03;;;2.33;;
30850;SDS011;17567;48.382;9.102;2023-02-01T08:11:31;3.30;;;2.40;;
30850;SDS011;17567;48.382;9.102;2023-02-01T08:16:32;3.53;;;2.30;;
30850;SDS011;17567;48.382;9.102;2023-02-01T08:21:36;2.60;;;2.40;;
30850;SDS011;17567;48.382;9.102;2023-02-01T08:26:36;3.90;;;2.67;;
30850;SDS011;17567;48.382;9.102;2023-02-01T08:31:37;3.53;;;2.87;;
30850;SDS011;17567;48.382;9.102;2023-02-01T08:36:40;4.53;;;3.40;;
30850;SDS011;17567;48.382;9.102;2023-02-01T08:41:41;4.33;;;2.43;;
30850;SDS011;17567;48.382;9.102;2023-02-01T08:47:02;3.53;;;2.87;;
30850;SDS011;17567;48.382;9.102;2023-02-01T08:52:03;2.53;;;2.27;;
30850;SDS011;17567;48.382;9.102;2023-02-01T08:57:04;3.53;;;2.47;;
30850;SDS011;17567;48.382;9.102;2023-02-01T09:02:05;3.87;;;2.70;;
30850;SDS011;17567;48.382;9.102;2023-02-01T09:07:05;4.63;;;2.93;;
30850;SDS011;17567;48.382;9.102;2023-02-01T09:12:06;6.10;;;3.20;;
30850;SDS011;17567;48.382;9.102;2023-02-01T09:17:07;6.17;;;2.70;;
30850;SDS011;17567;48.382;9.102;2023-02-01T09:22:08;4.77;;;2.70;;
30850;SDS011;17567;48.382;9.102;2023-02-01T09:27:09;5.30;;;2.63;;
30850;SDS011;17567;48.382;9.102;2023-02-01T09:32:10;7.80;;;2.80;;
30850;SDS011;17567;48.382;9.102;2023-02-01T09:37:13;6.30;;;2.70;;
30850;SDS011;17567;48.382;9.102;2023-02-01T09:42:24;4.67;;;2.27;;
30850;SDS011;17567;48.382;9.102;2023-02-01T09:47:26;5.27;;;2.77;;
30850;SDS011;17567;48.382;9.102;2023-02-01T09:52:29;5.77;;;2.57;;
30850;SDS011;17567;48.382;9.102;2023-02-01T09:57:48;6.00;;;2.03;;
30850;SDS011;17567;48.382;9.102;2023-02-01T10:02:55;6.97;;;2.83;;
30850;SDS011;17567;48.382;9.102;2023-02-01T10:13:06;10.17;;;2.90;;
30850;SDS011;17567;48.382;9.102;2023-02-01T10:29:26;8.37;;;2.93;;
30850;SDS011;17567;48.382;9.102;2023-02-01T10:34:21;10.77;;;3.23;;
30850;SDS011;17567;48.382;9.102;2023-02-01T10:39:31;10.77;;;4.00;;
30850;SDS011;17567;48.382;9.102;2023-02-01T10:44:32;11.43;;;3.50;;
30850;SDS011;17567;48.382;9.102;2023-02-01T10:49:45;12.40;;;3.00;;
30850;SDS011;17567;48.382;9.102;2023-02-01T10:54:52;6.07;;;2.93;;
30850;SDS011;17567;48.382;9.102;2023-02-01T10:59:53;9.20;;;4.17;;
30850;SDS011;17567;48.382;9.102;2023-02-01T11:05:04;8.27;;;3.20;;
30850;SDS011;17567;48.382;9.102;2023-02-01T11:15:38;5.03;;;2.13;;
30850;SDS011;17567;48.382;9.102;2023-02-01T11:20:47;3.77;;;2.10;;
30850;SDS011;17567;48.382;9.102;2023-02-01T11:25:56;8.03;;;2.53;;
30850;SDS011;17567;48.382;9.102;2023-02-01T11:30:59;6.77;;;2.97;;
30850;SDS011;17567;48.382;9.102;2023-02-01T11:36:13;3.43;;;2.07;;
30850;SDS011;17567;48.382;9.102;2023-02-01T11:41:26;9.13;;;2.43;;
30850;SDS011;17567;48.382;9.102;2023-02-01T11:46:31;9.40;;;2.57;;
30850;SDS011;17567;48.382;9.102;2023-02-01T12:07:16;5.50;;;2.73;;
30850;SDS011;17567;48.382;9.102;2023-02-01T12:44:03;16.40;;;8.03;;
30850;SDS011;17567;48.382;9.102;2023-02-01T12:49:16;6.63;;;3.00;;
30850;SDS011;17567;48.382;9.102;2023-02-01T12:54:36;7.00;;;2.80;;
30850;SDS011;17567;48.382;9.102;2023-02-01T13:10:24;11.93;;;2.83;;
30850;SDS011;17567;48.382;9.102;2023-02-01T13:15:48;10.60;;;3.13;;
30850;SDS011;17567;48.382;9.102;2023-02-01T13:21:38;5.23;;;2.43;;
30850;SDS011;17567;48.382;9.102;2023-02-01T13:26:17;14.73;;;3.07;;
30850;SDS011;17567;48.382;9.102;2023-02-01T13:42:18;15.00;;;3.33;;
30850;SDS011;17567;48.382;9.102;2023-02-01T13:47:25;9.00;;;2.73;;
30850;SDS011;17567;48.382;9.102;2023-02-01T13:57:42;11.67;;;3.00;;
30850;SDS011;17567;48.382;9.102;2023-02-01T14:03:00;9.83;;;3.57;;
30850;SDS011;17567;48.382;9.102;2023-02-01T14:08:23;11.67;;;3.67;;
30850;SDS011;17567;48.382;9.102;2023-02-01T14:13:52;8.87;;;2.80;;
30850;SDS011;17567;48.382;9.102;2023-02-01T14:18:57;8.83;;;3.23;;
30850;SDS011;17567;48.382;9.102;2023-02-01T14:34:48;6.13;;;3.07;;
30850;SDS011;17567;48.382;9.102;2023-02-01T14:40:04;11.13;;;3.83;;
30850;SDS011;17567;48.382;9.102;2023-02-01T14:55:41;19.13;;;4.30;;
30850;SDS011;17567;48.382;9.102;2023-02-01T15:00:55;10.10;;;2.73;;
30850;SDS011;17567;48.382;9.102;2023-02-01T15:05:57;20.50;;;9.37;;
30850;SDS011;17567;48.382;9.102;2023-02-01T15:11:06;7.33;;;3.30;;
30850;SDS011;17567;48.382;9.102;2023-02-01T15:16:14;30.23;;;15.33;;
30850;SDS011;17567;48.382;9.102;2023-02-01T15:21:17;7.27;;;3.00;;
30850;SDS011;17567;48.382;9.102;2023-02-01T15:26:24;16.47;;;3.47;;
30850;SDS011;17567;48.382;9.102;2023-02-01T15:31:37;12.40;;;3.53;;
30850;SDS011;17567;48.382;9.102;2023-02-01T15:36:39;9.27;;;2.93;;
30850;SDS011;17567;48.382;9.102;2023-02-01T15:41:46;12.00;;;3.83;;
30850;SDS011;17567;48.382;9.102;2023-02-01T15:46:56;9.57;;;3.50;;
30850;SDS011;17567;48.382;9.102;2023-02-01T15:52:00;12.07;;;3.77;;
30850;SDS011;17567;48.382;9.102;2023-02-01T15:57:02;15.93;;;4.23;;
30850;SDS011;17567;48.382;9.102;2023-02-01T16:02:05;13.27;;;5.97;;
30850;SDS011;17567;48.382;9.102;2023-02-01T16:07:32;13.63;;;4.70;;
30850;SDS011;17567;48.382;9.102;2023-02-01T16:12:44;10.83;;;4.53;;
30850;SDS011;17567;48.382;9.102;2023-02-01T16:17:46;9.10;;;3.70;;
30850;SDS011;17567;48.382;9.102;2023-02-01T16:22:46;12.07;;;3.23;;
30850;SDS011;17567;48.382;9.102;2023-02-01T16:27:47;11.30;;;4.10;;
30850;SDS011;17567;48.382;9.102;2023-02-01T16:32:48;11.57;;;3.50;;
30850;SDS011;17567;48.382;9.102;2023-02-01T16:37:52;12.10;;;3.90;;
30850;SDS011;17567;48.382;9.102;2023-02-01T16:42:53;11.23;;;4.13;;
30850;SDS011;17567;48.382;9.102;2023-02-01T16:47:55;11.77;;;3.90;;
30850;SDS011;17567;48.382;9.102;2023-02-01T16:52:57;17.07;;;5.83;;
30850;SDS011;17567;48.382;9.102;2023-02-01T16:57:58;10.57;;;3.40;;
30850;SDS011;17567;48.382;9.102;2023-02-01T17:02:58;10.07;;;3.93;;
30850;SDS011;17567;48.382;9.102;2023-02-01T17:08:01;10.67;;;3.83;;
30850;SDS011;17567;48.382;9.102;2023-02-01T17:13:03;19.03;;;4.17;;
30850;SDS011;17567;48.382;9.102;2023-02-01T17:18:05;14.47;;;3.73;;
30850;SDS011;17567;48.382;9.102;2023-02-01T17:23:09;11.03;;;3.90;;
30850;SDS011;17567;48.382;9.102;2023-02-01T17:28:10;13.87;;;4.57;;
30850;SDS011;17567;48.382;9.102;2023-02-01T17:33:30;20.63;;;6.43;;
30850;SDS011;17567;48.382;9.102;2023-02-01T17:38:33;11.17;;;3.77;;
30850;SDS011;17567;48.382;9.102;2023-02-01T17:43:34;14.50;;;4.73;;
30850;SDS011;17567;48.382;9.102;2023-02-01T17:48:35;10.73;;;4.80;;
30850;SDS011;17567;48.382;9.102;2023-02-01T17:53:35;12.77;;;3.50;;
30850;SDS011;17567;48.382;9.102;2023-02-01T17:58:36;15.77;;;4.20;;
30850;SDS011;17567;48.382;9.102;2023-02-01T18:03:36;9.03;;;3.27;;
30850;SDS011;17567;48.382;9.102;2023-02-01T18:08:37;10.07;;;3.80;;
30850;SDS011;17567;48.382;9.102;2023-02-01T18:13:38;19.97;;;6.80;;
30850;SDS011;17567;48.382;9.102;2023-02-01T18:18:39;15.23;;;4.13;;
30850;SDS011;17567;48.382;9.102;2023-02-01T18:23:40;6.37;;;3.20;;
30850;SDS011;17567;48.382;9.102;2023-02-01T18:28:41;10.57;;;3.60;;
30850;SDS011;17567;48.382;9.102;2023-02-01T18:33:41;14.13;;;4.50;;
30850;SDS011;17567;48.382;9.102;2023-02-01T18:38:42;9.20;;;3.40;;
30850;SDS011;17567;48.382;9.102;2023-02-01T18:43:46;6.37;;;3.17;;
30850;SDS011;17567;48.382;9.102;2023-02-01T18:48:47;10.73;;;3.60;;
30850;SDS011;17567;48.382;9.102;2023-02-01T18:53:48;11.97;;;5.33;;
30850;SDS011;17567;48.382;9.102;2023-02-01T18:58:48;9.20;;;3.43;;
30850;SDS011;17567;48.382;9.102;2023-02-01T19:03:50;15.53;;;4.60;;
30850;SDS011;17567;48.382;9.102;2023-02-01T19:08:50;11.23;;;3.47;;
30850;SDS011;17567;48.382;9.102;2023-02-01T19:13:53;14.27;;;5.03;;
30850;SDS011;17567;48.382;9.102;2023-02-01T19:18:54;12.53;;;4.53;;
30850;SDS011;17567;48.382;9.102;2023-02-01T19:23:54;13.73;;;4.37;;
30850;SDS011;17567;48.382;9.102;2023-02-01T19:28:56;14.63;;;5.10;;
30850;SDS011;17567;48.382;9.102;2023-02-01T19:33:58;11.77;;;3.63;;
30850;SDS011;17567;48.382;9.102;2023-02-01T19:38:58;15.00;;;4.43;;
30850;SDS011;17567;48.382;9.102;2023-02-01T19:43:59;11.07;;;4.70;;
30850;SDS011;17567;48.382;9.102;2023-02-01T19:49:00;15.00;;;6.80;;
30850;SDS011;17567;48.382;9.102;2023-02-01T19:54:00;9.17;;;3.80;;
30850;SDS011;17567;48.382;9.102;2023-02-01T19:59:01;12.87;;;3.53;;
30850;SDS011;17567;48.382;9.102;2023-02-01T20:04:03;12.43;;;4.37;;
30850;SDS011;17567;48.382;9.102;2023-02-01T20:09:06;18.60;;;8.90;;
30850;SDS011;17567;48.382;9.102;2023-02-01T20:14:07;9.53;;;3.80;;
30850;SDS011;17567;48.382;9.102;2023-02-01T20:19:09;10.30;;;3.50;;
30850;SDS011;17567;48.382;9.102;2023-02-01T20:24:15;13.80;;;5.80;;
30850;SDS011;17567;48.382;9.102;2023-02-01T20:29:17;11.77;;;3.23;;
30850;SDS011;17567;48.382;9.102;2023-02-01T20:34:18;9.13;;;3.83;;
30850;SDS011;17567;48.382;9.102;2023-02-01T20:39:19;9.37;;;3.77;;
30850;SDS011;17567;48.382;9.102;2023-02-01T20:44:20;13.43;;;3.70;;
30850;SDS011;17567;48.382;9.102;2023-02-01T20:49:20;11.90;;;4.07;;
30850;SDS011;17567;48.382;9.102;2023-02-01T20:54:21;6.63;;;3.43;;
30850;SDS011;17567;48.382;9.102;2023-02-01T20:59:22;13.30;;;3.73;;
30850;SDS011;17567;48.382;9.102;2023-02-01T21:04:26;10.67;;;3.83;;
30850;SDS011;17567;48.382;9.102;2023-02-01T21:09:28;12.23;;;4.53;;
30850;SDS011;17567;48.382;9.102;2023-02-01T21:14:29;8.50;;;3.40;;
30850;SDS011;17567;48.382;9.102;2023-02-01T21:19:29;5.70;;;3.23;;
30850;SDS011;17567;48.382;9.102;2023-02-01T21:24:41;13.90;;;3.93;;
30850;SDS011;17567;48.382;9.102;2023-02-01T21:29:42;10.27;;;3.13;;
30850;SDS011;17567;48.382;9.102;2023-02-01T21:34:42;14.33;;;3.33;;
30850;SDS011;17567;48.382;9.102;2023-02-01T21:39:43;11.27;;;3.00;;
30850;SDS011;17567;48.382;9.102;2023-02-01T21:44:44;11.23;;;3.43;;
30850;SDS011;17567;48.382;9.102;2023-02-01T21:49:47;7.27;;;2.90;;
30850;SDS011;17567;48.382;9.102;2023-02-01T21:54:51;6.53;;;2.90;;
30850;SDS011;17567;48.382;9.102;2023-02-01T21:59:58;9.33;;;2.83;;
30850;SDS011;17567;48.382;9.102;2023-02-01T22:04:59;11.20;;;3.80;;
30850;SDS011;17567;48.382;9.102;2023-02-01T22:10:00;15.37;;;3.03;;
30850;SDS011;17567;48.382;9.102;2023-02-01T22:15:01;10.67;;;3.50;;
30850;SDS011;17567;48.382;9.102;2023-02-01T22:20:03;10.30;;;2.97;;
30850;SDS011;17567;48.382;9.102;2023-02-01T22:25:04;12.60;;;2.63;;
30850;SDS011;17567;48.382;9.102;2023-02-01T22:30:05;12.07;;;2.77;;
30850;SDS011;17567;48.382;9.102;2023-02-01T22:35:06;13.63;;;3.53;;
30850;SDS011;17567;48.382;9.102;2023-02-01T22:40:08;8.50;;;2.90;;
30850;SDS011;17567;48.382;9.102;2023-02-01T22:45:09;15.43;;;3.47;;
30850;SDS011;17567;48.382;9.102;2023-02-01T22:50:10;10.77;;;3.00;;
30850;SDS011;17567;48.382;9.102;2023-02-01T22:55:10;12.37;;;3.60;;
30850;SDS011;17567;48.382;9.102;2023-02-01T23:00:11;15.13;;;2.90;;
30850;SDS011;17567;48.382;9.102;2023-02-01T23:05:12;9.33;;;2.90;;
30850;SDS011;17567;48.382;9.102;2023-02-01T23:10:13;4.10;;;2.70;;
30850;SDS011;17567;48.382;9.102;2023-02-01T23:15:18;9.63;;;2.50;;
30850;SDS011;17567;48.382;9.102;2023-02-01T23:20:19;10.50;;;2.60;;
30850;SDS011;17567;48.382;9.102;2023-02-01T23:25:20;9.20;;;2.67;;
30850;SDS011;17567;48.382;9.102;2023-02-01T23:30:21;12.67;;;2.67;;
30850;SDS011;17567;48.382;9.102;2023-02-01T23:35:21;13.17;;;2.90;;
30850;SDS011;17567;48.382;9.102;2023-02-01T23:40:22;7.93;;;2.90;;
30850;SDS011;17567;48.382;9.102;2023-02-01T23:45:22;10.67;;;3.10;;
30850;SDS011;17567;48.382;9.102;2023-02-01T23:50:26;9.03;;;2.60;;
30850;SDS011;17567;48.382;9.102;2023-02-01T23:55:27;3.50;;;1.97;;
